EST,Max TemperatureF,Mean TemperatureF,Min TemperatureF,Max Dew PointF,MeanDew PointF,Min DewpointF,Max Humidity, Mean Humidity, Min Humidity, Max Sea Level PressureIn, Mean Sea Level PressureIn, Min Sea Level PressureIn, Max VisibilityMiles, Mean VisibilityMiles, Min VisibilityMiles, Max Wind SpeedMPH, Mean Wind SpeedMPH, Max Gust SpeedMPH,PrecipitationIn, CloudCover, Events, WindDirDegrees
2013-1-1,35,33,30,31,28,20,92,70,47,30.11,30.01,29.93,10,4,1,15,4,21,0.08,8,Rain-Snow,244
2013-1-2,31,24,16,27,19,14,92,77,62,30.27,30.13,29.99,10,8,2,12,5,14,0.01,5,Rain-Snow,306
2013-1-3,33,21,9,18,14,7,92,72,51,30.31,30.25,30.11,10,9,2,15,3,21,T,1,,257
2013-1-4,29,28,26,19,18,16,69,66,63,30.36,30.30,30.20,10,10,6,16,8,24,T,7,,243
2013-1-5,40,29,18,24,19,16,84,61,37,30.45,30.33,30.16,10,10,7,16,2,23,0.00,4,,238
2013-1-6,38,35,31,29,25,21,82,69,56,30.25,30.14,30.03,10,9,3,13,5,17,0.02,8,Rain-Snow,235
2013-1-7,34,25,15,28,22,13,92,77,61,30.51,30.38,30.19,10,8,2,14,4,20,T,6,Snow,279
2013-1-8,49,31,12,28,18,9,92,64,36,30.50,30.42,30.38,10,7,3,9,1,14,0.00,0,,297
2013-1-9,52,36,20,45,34,18,96,78,59,30.54,30.41,30.31,10,8,2,14,3,20,0.04,5,Rain,237
2013-1-10,49,38,26,37,30,24,100,81,61,30.65,30.51,30.37,10,5,0,3,0,5,0.00,3,Fog,60
2013-1-11,58,47,35,52,45,32,96,78,59,30.34,30.12,30.05,10,7,2,17,6,25,0.07,7,Rain,169
2013-1-12,68,56,44,55,47,43,96,80,63,30.17,30.10,30.04,10,7,0,13,2,18,T,4,Fog,262
2013-1-13,68,56,43,54,47,42,100,73,45,30.08,30.00,29.93,10,7,0,21,4,26,0.01,5,Fog-Rain,189
2013-1-14,59,46,33,54,39,30,96,89,82,30.36,30.21,30.00,10,7,1,20,4,26,0.60,8,Rain-Snow,317
2013-1-15,40,37,33,37,34,32,96,91,85,30.34,30.18,30.01,10,5,2,10,2,14,0.67,8,Rain,326
2013-1-16,50,43,35,44,36,28,100,88,76,30.08,29.98,29.85,10,6,0,32,4,43,0.49,8,Fog-Rain,235
2013-1-17,38,34,30,28,25,19,82,67,52,30.22,30.13,30.06,10,10,10,12,3,17,0.00,6,,321
2013-1-18,36,28,20,23,12,3,75,51,26,30.52,30.41,30.19,10,10,10,24,7,35,0.00,3,,291
2013-1-19,53,36,19,17,14,7,84,52,19,30.39,30.22,29.97,10,10,10,21,6,28,0.00,0,,201
2013-1-20,48,37,26,27,15,3,55,37,19,30.14,30.03,29.95,10,10,10,26,12,38,0.00,1,,263
2013-1-21,36,26,15,16,10,3,80,54,27,30.12,30.01,29.83,10,8,1,24,8,35,T,6,Snow,277
2013-1-22,16,11,5,1,-5,-8,66,51,36,30.32,30.22,30.01,10,10,9,26,11,36,0.00,2,,286
2013-1-23,19,13,7,14,2,-6,88,61,34,30.36,30.21,30.01,10,7,1,16,5,20,0.08,6,Snow,261
2013-1-24,18,6,-7,14,6,-10,87,65,43,30.59,30.26,29.96,10,4,0,17,6,23,0.13,7,Snow,313
2013-1-25,28,11,-7,22,10,-11,88,69,49,30.55,30.15,29.94,10,5,0,14,4,22,0.12,7,Fog-Snow,189
2013-1-26,26,24,21,19,18,16,84,76,68,30.46,30.22,30.04,10,5,1,16,7,22,0.02,8,Snow,275
2013-1-27,40,27,13,27,18,11,88,66,44,30.56,30.46,30.37,10,9,6,7,1,8,0.00,4,,191
2013-1-28,56,44,32,48,38,27,96,81,66,30.35,30.21,30.10,10,5,2,22,7,29,0.55,8,Rain,237
2013-1-29,69,53,37,52,46,36,96,76,56,30.14,30.05,29.92,10,6,0,17,3,23,0.09,5,Fog-Rain,201
2013-1-30,70,54,37,54,49,37,100,77,53,29.91,29.61,29.33,10,7,1,37,8,46,1.32,6,Rain,187
2013-1-31,48,35,22,39,20,13,86,73,60,29.94,29.70,29.32,10,4,0,33,14,47,0.21,8,Rain-Snow,264